Time;durP1;ratioP1;P1;durP2;ratioP2;P2;SDS_P1;SDS_P2;PMS_P1;PMS_P2;Temp;Humidity;BMP_temperature;BMP_pressure;BME280_temperature;BME280_humidity;BME280_pressure;Samples;Min_cycle;Max_cycle;Signal;HPM_P1;HPM_P2
2022/12/08 00:00:27;;;;;;;21.65;15.65;;;;;;;;;;5014435;28;20026;-76
2022/12/08 00:02:55;;;;;;;25.63;16.15;;;;;;;;;;5012507;28;20037;-75
2022/12/08 00:10:54;;;;;;;18.20;16.27;;;;;;;;;;5030560;28;20033;-76
2022/12/08 00:13:20;;;;;;;17.23;14.30;;;;;;;;;;5007535;28;20057;-76
2022/12/08 00:15:48;;;;;;;23.15;15.02;;;;;;;;;;5027119;28;20032;-76
2022/12/08 00:18:14;;;;;;;20.50;13.02;;;;;;;;;;5013367;28;20025;-76
2022/12/08 00:20:42;;;;;;;22.65;15.70;;;;;;;;;;5028158;28;20022;-76
2022/12/08 00:23:13;;;;;;;19.52;12.65;;;;;;;;;;5027295;28;20483;-76
2022/12/08 00:25:41;;;;;;;19.83;14.23;;;;;;;;;;5001959;28;20034;-75
2022/12/08 00:28:07;;;;;;;16.20;12.95;;;;;;;;;;5016946;28;20026;-76
2022/12/08 00:30:35;;;;;;;20.30;13.93;;;;;;;;;;5029958;28;20025;-76
2022/12/08 00:33:03;;;;;;;22.00;14.05;;;;;;;;;;5031466;28;20033;-76
2022/12/08 00:35:34;;;;;;;19.50;13.98;;;;;;;;;;5046216;28;20482;-76
2022/12/08 00:38:05;;;;;;;17.70;15.48;;;;;;;;;;5040510;28;20025;-76
2022/12/08 00:40:33;;;;;;;21.20;14.95;;;;;;;;;;5023880;28;20026;-76
2022/12/08 00:43:02;;;;;;;17.40;12.45;;;;;;;;;;5012204;28;20030;-76
2022/12/08 00:45:28;;;;;;;19.45;12.93;;;;;;;;;;5030535;28;20029;-76
2022/12/08 00:47:53;;;;;;;16.48;12.98;;;;;;;;;;5030925;28;20132;-76
2022/12/08 00:50:19;;;;;;;19.92;15.70;;;;;;;;;;5028132;28;20037;-76
2022/12/08 00:52:48;;;;;;;17.02;12.70;;;;;;;;;;5033476;28;20028;-76
2022/12/08 00:55:16;;;;;;;15.20;13.13;;;;;;;;;;5025683;28;20388;-76
2022/12/08 00:57:42;;;;;;;14.50;11.63;;;;;;;;;;5030237;28;20060;-76
2022/12/08 01:00:08;;;;;;;20.75;15.60;;;;;;;;;;5013358;28;20080;-76
2022/12/08 01:02:39;;;;;;;20.20;15.52;;;;;;;;;;5027396;28;20028;-76
2022/12/08 01:05:07;;;;;;;30.15;16.25;;;;;;;;;;5019491;23;20044;-74
2022/12/08 01:07:33;;;;;;;20.17;16.50;;;;;;;;;;5043613;28;20025;-73
2022/12/08 01:09:59;;;;;;;24.58;17.08;;;;;;;;;;5020299;28;20033;-73
2022/12/08 01:12:24;;;;;;;18.58;14.90;;;;;;;;;;5020524;28;20192;-73
2022/12/08 01:14:52;;;;;;;22.35;15.80;;;;;;;;;;5033948;28;20094;-73
2022/12/08 01:17:21;;;;;;;25.80;16.23;;;;;;;;;;5023546;28;20030;-73
2022/12/08 01:19:49;;;;;;;18.50;15.27;;;;;;;;;;5019030;28;20075;-73
2022/12/08 01:22:17;;;;;;;27.95;18.02;;;;;;;;;;5029946;28;20033;-73
2022/12/08 01:24:43;;;;;;;31.17;16.48;;;;;;;;;;5042726;28;20475;-73
2022/12/08 01:27:09;;;;;;;25.70;17.05;;;;;;;;;;5008485;28;20055;-73
2022/12/08 01:29:37;;;;;;;22.55;17.95;;;;;;;;;;5028392;28;20037;-73
2022/12/08 01:32:03;;;;;;;25.02;16.92;;;;;;;;;;5011447;28;20025;-73
2022/12/08 01:34:31;;;;;;;23.30;17.25;;;;;;;;;;5033744;28;20112;-73
2022/12/08 01:36:57;;;;;;;21.60;16.65;;;;;;;;;;5026786;28;20381;-74
2022/12/08 01:39:25;;;;;;;24.48;18.50;;;;;;;;;;5024839;28;20017;-74
2022/12/08 01:41:51;;;;;;;21.40;16.15;;;;;;;;;;5030213;28;20051;-73
2022/12/08 01:44:17;;;;;;;22.65;17.35;;;;;;;;;;5029831;28;20071;-74
2022/12/08 01:46:44;;;;;;;20.30;15.10;;;;;;;;;;5028505;28;20084;-74
2022/12/08 01:49:12;;;;;;;26.13;18.27;;;;;;;;;;5030151;28;20415;-74
2022/12/08 01:51:48;;;;;;;23.48;17.85;;;;;;;;;;5034811;28;20036;-73
2022/12/08 01:54:14;;;;;;;23.88;16.08;;;;;;;;;;5028366;28;20044;-75
2022/12/08 01:56:46;;;;;;;19.52;14.95;;;;;;;;;;5036008;28;20040;-73
2022/12/08 01:59:12;;;;;;;21.38;16.17;;;;;;;;;;5028931;28;20032;-72
2022/12/08 02:01:38;;;;;;;21.23;14.40;;;;;;;;;;5010311;28;20041;-72
2022/12/08 02:04:05;;;;;;;19.52;14.90;;;;;;;;;;5029854;28;20029;-72
2022/12/08 02:06:37;;;;;;;24.60;18.38;;;;;;;;;;5002817;28;20033;-74
2022/12/08 02:09:04;;;;;;;22.50;14.52;;;;;;;;;;5015490;28;20032;-74
2022/12/08 02:11:30;;;;;;;21.02;18.08;;;;;;;;;;4991653;28;20054;-74
2022/12/08 02:13:57;;;;;;;21.67;16.45;;;;;;;;;;5014457;28;20029;-73
2022/12/08 02:16:35;;;;;;;21.27;15.45;;;;;;;;;;4995787;28;20037;-74
2022/12/08 02:19:10;;;;;;;25.15;17.10;;;;;;;;;;5035079;28;20042;-73
2022/12/08 02:21:38;;;;;;;25.58;17.38;;;;;;;;;;5028218;28;20033;-73
2022/12/08 02:24:13;;;;;;;20.23;16.40;;;;;;;;;;5029188;28;20088;-73
2022/12/08 02:26:41;;;;;;;25.40;17.08;;;;;;;;;;5011399;28;20272;-72
2022/12/08 02:29:07;;;;;;;20.52;16.95;;;;;;;;;;5037378;28;20521;-73
2022/12/08 02:31:33;;;;;;;18.95;15.90;;;;;;;;;;5023133;28;20029;-73
2022/12/08 02:34:05;;;;;;;22.00;15.95;;;;;;;;;;5026076;28;20026;-74
2022/12/08 02:36:35;;;;;;;24.80;16.42;;;;;;;;;;5026601;28;20025;-74
2022/12/08 02:39:07;;;;;;;26.75;21.20;;;;;;;;;;5028928;28;20467;-73
2022/12/08 02:41:36;;;;;;;22.55;16.52;;;;;;;;;;5022961;28;20044;-73
2022/12/08 02:44:09;;;;;;;30.30;18.17;;;;;;;;;;5004395;28;20030;-73
2022/12/08 02:46:41;;;;;;;29.63;18.95;;;;;;;;;;5028358;28;20029;-73
2022/12/08 02:49:07;;;;;;;32.08;17.55;;;;;;;;;;5032256;28;20029;-73
2022/12/08 02:51:37;;;;;;;22.42;18.73;;;;;;;;;;5029276;28;20041;-73
2022/12/08 02:54:06;;;;;;;22.33;16.27;;;;;;;;;;5039325;28;20029;-73
2022/12/08 02:56:31;;;;;;;25.25;20.08;;;;;;;;;;5010369;28;20033;-73
2022/12/08 02:59:12;;;;;;;22.02;15.85;;;;;;;;;;5034011;28;20478;-73
2022/12/08 03:01:48;;;;;;;19.67;15.32;;;;;;;;;;5033874;28;20037;-73
2022/12/08 03:04:33;;;;;;;21.92;16.40;;;;;;;;;;5030793;28;20025;-73
2022/12/08 03:07:08;;;;;;;34.78;20.08;;;;;;;;;;5029554;28;20036;-73
2022/12/08 03:09:36;;;;;;;26.23;15.50;;;;;;;;;;5028505;28;20467;-74
2022/12/08 03:12:05;;;;;;;17.98;15.38;;;;;;;;;;5013053;28;20107;-74
2022/12/08 03:14:32;;;;;;;25.85;16.10;;;;;;;;;;5031928;28;20034;-73
2022/12/08 03:17:02;;;;;;;22.15;16.13;;;;;;;;;;5023216;28;20029;-73
2022/12/08 03:19:31;;;;;;;24.85;16.08;;;;;;;;;;5028083;28;20033;-72
2022/12/08 03:22:03;;;;;;;29.20;16.55;;;;;;;;;;5026148;28;20033;-73
2022/12/08 03:24:30;;;;;;;17.98;14.77;;;;;;;;;;5020032;28;20029;-74
2022/12/08 03:27:18;;;;;;;19.05;14.48;;;;;;;;;;5013508;28;20029;-73
2022/12/08 03:29:50;;;;;;;23.17;17.65;;;;;;;;;;5031502;28;20033;-74
2022/12/08 03:32:22;;;;;;;22.95;16.50;;;;;;;;;;5028238;28;20029;-74
2022/12/08 03:34:49;;;;;;;22.42;15.07;;;;;;;;;;5024891;28;20072;-73
2022/12/08 03:37:15;;;;;;;22.33;16.27;;;;;;;;;;5015547;28;20033;-73
2022/12/08 03:39:43;;;;;;;25.42;15.88;;;;;;;;;;5029589;28;20033;-73
2022/12/08 03:42:09;;;;;;;23.58;17.55;;;;;;;;;;4993055;28;20032;-73
2022/12/08 03:44:37;;;;;;;23.10;17.17;;;;;;;;;;5021533;28;20037;-73
2022/12/08 03:47:03;;;;;;;22.95;16.67;;;;;;;;;;5015096;28;20045;-73
2022/12/08 03:49:29;;;;;;;21.40;14.43;;;;;;;;;;5036493;28;20091;-73
2022/12/08 03:51:55;;;;;;;25.95;17.10;;;;;;;;;;5022094;28;20068;-73
2022/12/08 03:54:21;;;;;;;22.13;15.77;;;;;;;;;;5034540;28;20088;-73
2022/12/08 03:56:51;;;;;;;19.80;13.95;;;;;;;;;;5027286;28;20042;-73
2022/12/08 03:59:17;;;;;;;19.55;14.75;;;;;;;;;;5028939;28;20491;-73
2022/12/08 04:01:43;;;;;;;19.80;17.33;;;;;;;;;;5017423;28;20031;-73
2022/12/08 04:04:11;;;;;;;23.55;15.35;;;;;;;;;;5013829;28;20064;-72
2022/12/08 04:06:37;;;;;;;18.23;14.27;;;;;;;;;;5013393;28;20048;-72
2022/12/08 04:09:03;;;;;;;26.55;17.63;;;;;;;;;;5029369;28;20037;-72
2022/12/08 04:11:29;;;;;;;19.33;15.30;;;;;;;;;;5029964;28;20076;-72
2022/12/08 04:13:55;;;;;;;20.48;14.10;;;;;;;;;;5039856;28;20025;-73
2022/12/08 04:16:25;;;;;;;23.15;14.50;;;;;;;;;;5025621;28;20022;-73
2022/12/08 04:18:55;;;;;;;22.90;16.05;;;;;;;;;;5006311;28;20030;-72
2022/12/08 04:21:23;;;;;;;22.08;16.45;;;;;;;;;;5015154;28;20040;-73
2022/12/08 04:23:51;;;;;;;24.10;16.05;;;;;;;;;;5041115;28;20028;-74
2022/12/08 04:26:17;;;;;;;21.70;16.27;;;;;;;;;;5028204;28;20029;-74
2022/12/08 04:28:46;;;;;;;23.10;15.32;;;;;;;;;;5013916;28;20443;-74
2022/12/08 04:31:11;;;;;;;23.30;17.02;;;;;;;;;;5015716;28;20064;-74
2022/12/08 04:33:38;;;;;;;20.23;15.35;;;;;;;;;;5029089;28;20532;-74
2022/12/08 04:36:04;;;;;;;22.77;17.02;;;;;;;;;;5027230;28;20040;-73
2022/12/08 04:38:35;;;;;;;24.65;15.68;;;;;;;;;;5008456;28;20037;-73
2022/12/08 04:41:01;;;;;;;26.60;18.33;;;;;;;;;;5012481;28;20032;-72
2022/12/08 04:43:27;;;;;;;21.80;16.30;;;;;;;;;;5017106;28;20033;-73
2022/12/08 04:45:58;;;;;;;23.58;14.25;;;;;;;;;;5014973;28;20037;-73
2022/12/08 04:48:24;;;;;;;21.80;16.00;;;;;;;;;;5011405;28;20025;-73
2022/12/08 04:50:50;;;;;;;20.50;15.48;;;;;;;;;;5016097;28;20041;-73
2022/12/08 04:53:16;;;;;;;18.25;13.98;;;;;;;;;;4999367;28;20042;-73
2022/12/08 04:55:43;;;;;;;15.27;13.25;;;;;;;;;;5016054;28;20037;-73
2022/12/08 04:58:14;;;;;;;23.98;16.15;;;;;;;;;;5021577;28;20056;-73
2022/12/08 05:00:43;;;;;;;19.98;16.52;;;;;;;;;;5000618;28;20025;-72
2022/12/08 05:03:11;;;;;;;20.13;16.13;;;;;;;;;;5031826;28;20026;-73
2022/12/08 05:05:40;;;;;;;22.83;16.58;;;;;;;;;;5026662;28;20025;-73
2022/12/08 05:08:09;;;;;;;18.70;15.48;;;;;;;;;;5013215;28;20029;-73
2022/12/08 05:10:37;;;;;;;19.48;13.10;;;;;;;;;;4997628;28;20038;-73
2022/12/08 05:13:03;;;;;;;21.75;16.88;;;;;;;;;;5018992;28;20036;-73
2022/12/08 05:15:33;;;;;;;22.63;14.43;;;;;;;;;;5030732;28;20037;-73
2022/12/08 05:18:01;;;;;;;19.45;14.23;;;;;;;;;;5013798;28;20033;-72
2022/12/08 05:20:29;;;;;;;16.92;13.85;;;;;;;;;;5023123;28;20021;-74
2022/12/08 05:22:58;;;;;;;17.10;14.05;;;;;;;;;;4997851;28;20030;-73
2022/12/08 05:25:26;;;;;;;20.13;14.32;;;;;;;;;;5028483;28;20026;-73
2022/12/08 05:27:52;;;;;;;20.95;15.32;;;;;;;;;;5011134;28;20037;-73
2022/12/08 05:30:22;;;;;;;28.73;17.55;;;;;;;;;;5027615;28;20451;-73
2022/12/08 05:32:53;;;;;;;20.48;15.88;;;;;;;;;;5016284;28;20029;-73
2022/12/08 05:35:19;;;;;;;26.38;14.50;;;;;;;;;;5004410;28;20049;-72
2022/12/08 05:37:45;;;;;;;25.33;15.48;;;;;;;;;;5007827;28;20419;-73
2022/12/08 05:40:15;;;;;;;19.25;12.63;;;;;;;;;;4998705;28;20038;-74
2022/12/08 05:42:44;;;;;;;20.98;15.00;;;;;;;;;;5019766;28;20037;-74
2022/12/08 05:45:12;;;;;;;25.23;15.80;;;;;;;;;;5017047;28;20032;-74
2022/12/08 05:47:40;;;;;;;22.17;17.85;;;;;;;;;;4979219;28;20036;-74
2022/12/08 05:50:11;;;;;;;21.23;16.00;;;;;;;;;;4999299;28;20033;-74
2022/12/08 05:52:39;;;;;;;19.40;14.25;;;;;;;;;;4994994;28;20559;-74
2022/12/08 05:55:05;;;;;;;20.58;15.02;;;;;;;;;;5001790;28;20472;-72
2022/12/08 05:57:33;;;;;;;21.60;16.83;;;;;;;;;;5013421;28;20042;-74
2022/12/08 06:00:02;;;;;;;17.73;12.38;;;;;;;;;;5002030;28;20037;-74
2022/12/08 06:02:38;;;;;;;17.83;14.65;;;;;;;;;;4996734;28;20025;-74
2022/12/08 06:05:04;;;;;;;16.92;12.93;;;;;;;;;;4981198;28;20046;-73
2022/12/08 06:07:32;;;;;;;18.45;11.90;;;;;;;;;;5020673;28;20511;-76
2022/12/08 06:10:00;;;;;;;23.30;13.02;;;;;;;;;;5013896;28;20514;-73
2022/12/08 06:12:26;;;;;;;21.23;14.63;;;;;;;;;;5007332;28;20044;-73
2022/12/08 06:14:51;;;;;;;22.10;11.52;;;;;;;;;;5001493;28;20034;-73
2022/12/08 06:17:20;;;;;;;22.60;17.38;;;;;;;;;;5026825;28;20033;-73
2022/12/08 06:19:48;;;;;;;21.15;14.55;;;;;;;;;;4995854;28;20033;-73
2022/12/08 06:22:14;;;;;;;15.63;12.95;;;;;;;;;;5034406;28;20025;-73
2022/12/08 06:24:40;;;;;;;18.55;13.90;;;;;;;;;;5033728;28;20071;-74
2022/12/08 06:27:05;;;;;;;25.67;14.30;;;;;;;;;;5032220;28;20033;-75
2022/12/08 06:29:31;;;;;;;24.73;14.85;;;;;;;;;;5039107;28;20115;-75
2022/12/08 06:31:59;;;;;;;22.20;16.98;;;;;;;;;;5018265;28;20037;-74
2022/12/08 06:34:25;;;;;;;27.63;18.15;;;;;;;;;;5020485;28;20029;-74
2022/12/08 06:36:53;;;;;;;21.38;13.90;;;;;;;;;;5009240;28;20049;-74
2022/12/08 06:39:24;;;;;;;24.15;14.43;;;;;;;;;;5032052;28;20387;-74
2022/12/08 06:44:34;;;;;;;24.58;15.63;;;;;;;;;;5030021;28;20025;-74
2022/12/08 06:47:05;;;;;;;21.70;14.45;;;;;;;;;;5010419;28;20036;-74
2022/12/08 06:49:35;;;;;;;20.15;16.13;;;;;;;;;;5029025;28;20036;-74
2022/12/08 06:52:01;;;;;;;23.92;15.50;;;;;;;;;;5015515;28;20037;-75
2022/12/08 06:54:29;;;;;;;21.90;14.27;;;;;;;;;;5005324;28;20029;-75
2022/12/08 06:56:55;;;;;;;24.13;15.00;;;;;;;;;;5031022;28;20380;-75
2022/12/08 06:59:21;;;;;;;19.48;13.65;;;;;;;;;;5034757;28;20025;-75
2022/12/08 07:01:47;;;;;;;22.65;14.68;;;;;;;;;;5014296;28;20029;-75
2022/12/08 07:07:06;;;;;;;23.67;16.23;;;;;;;;;;4988989;28;19921;-75
2022/12/08 07:09:32;;;;;;;21.88;15.30;;;;;;;;;;5012712;28;20088;-75
2022/12/08 07:12:00;;;;;;;19.15;16.13;;;;;;;;;;5013722;28;20038;-76
2022/12/08 07:14:28;;;;;;;22.55;15.65;;;;;;;;;;5020884;28;20499;-76
2022/12/08 07:16:54;;;;;;;23.58;19.48;;;;;;;;;;5009521;28;20053;-76
2022/12/08 07:19:20;;;;;;;34.22;17.45;;;;;;;;;;4999871;28;20492;-76
2022/12/08 07:21:46;;;;;;;25.33;18.58;;;;;;;;;;5015550;28;20392;-76
2022/12/08 07:24:11;;;;;;;22.63;15.98;;;;;;;;;;5004958;28;20029;-76
2022/12/08 07:26:40;;;;;;;21.33;14.15;;;;;;;;;;4995881;28;20025;-77
2022/12/08 07:29:06;;;;;;;23.83;15.13;;;;;;;;;;5018084;28;20589;-76
2022/12/08 07:31:31;;;;;;;23.13;17.23;;;;;;;;;;4999742;28;20029;-76
2022/12/08 07:33:57;;;;;;;25.58;17.80;;;;;;;;;;5016593;28;20034;-76
2022/12/08 07:36:26;;;;;;;23.20;15.80;;;;;;;;;;4991068;28;20508;-76
2022/12/08 07:38:54;;;;;;;21.63;15.60;;;;;;;;;;5015498;28;20508;-76
2022/12/08 07:41:21;;;;;;;24.67;16.65;;;;;;;;;;5013084;28;20030;-77
2022/12/08 07:43:50;;;;;;;30.45;17.90;;;;;;;;;;4959464;28;20036;-77
2022/12/08 07:46:17;;;;;;;23.25;17.42;;;;;;;;;;4989605;28;20042;-77
2022/12/08 07:48:43;;;;;;;20.63;17.23;;;;;;;;;;4984611;28;20041;-75
2022/12/08 07:51:10;;;;;;;28.00;17.20;;;;;;;;;;5012459;28;20488;-75
2022/12/08 07:53:42;;;;;;;24.08;17.65;;;;;;;;;;5017349;28;20029;-75
2022/12/08 07:56:11;;;;;;;21.95;14.93;;;;;;;;;;5006640;28;20034;-75
2022/12/08 07:58:39;;;;;;;18.15;13.95;;;;;;;;;;5006310;28;20033;-76
2022/12/08 08:01:05;;;;;;;16.95;15.23;;;;;;;;;;5010534;28;20032;-75
2022/12/08 08:03:36;;;;;;;25.10;16.98;;;;;;;;;;4998737;28;20041;-76
2022/12/08 08:06:09;;;;;;;25.08;17.55;;;;;;;;;;4993399;28;20030;-76
2022/12/08 08:08:35;;;;;;;22.55;17.02;;;;;;;;;;5012052;28;20052;-75
2022/12/08 08:11:10;;;;;;;24.98;18.27;;;;;;;;;;5009643;28;20661;-75
2022/12/08 08:13:39;;;;;;;30.45;17.75;;;;;;;;;;5011769;28;20030;-75
2022/12/08 08:16:06;;;;;;;24.55;17.85;;;;;;;;;;5020962;28;20034;-75
2022/12/08 08:18:32;;;;;;;27.17;16.23;;;;;;;;;;5012676;28;20033;-75
2022/12/08 08:20:58;;;;;;;21.77;16.77;;;;;;;;;;5014043;28;20026;-76
2022/12/08 08:23:26;;;;;;;16.92;14.23;;;;;;;;;;5014103;28;20028;-75
2022/12/08 08:25:59;;;;;;;24.98;17.58;;;;;;;;;;5010392;28;20045;-76
2022/12/08 08:28:27;;;;;;;23.75;17.27;;;;;;;;;;5011374;28;20036;-75
2022/12/08 08:30:56;;;;;;;18.75;16.48;;;;;;;;;;4985796;28;20042;-76
2022/12/08 08:33:22;;;;;;;22.75;16.38;;;;;;;;;;5013593;28;20033;-76
2022/12/08 08:35:48;;;;;;;25.05;17.73;;;;;;;;;;5009449;28;20096;-76
2022/12/08 08:38:16;;;;;;;20.23;15.98;;;;;;;;;;5018151;28;20045;-73
2022/12/08 08:40:49;;;;;;;26.40;17.65;;;;;;;;;;5012814;28;20029;-74
2022/12/08 08:43:29;;;;;;;23.60;16.83;;;;;;;;;;5001220;28;20041;-73
2022/12/08 08:45:57;;;;;;;23.83;18.30;;;;;;;;;;5012758;28;20096;-74
2022/12/08 08:48:25;;;;;;;24.98;19.02;;;;;;;;;;4992687;28;20135;-73
2022/12/08 08:50:56;;;;;;;22.38;18.40;;;;;;;;;;4993152;28;20037;-76
2022/12/08 08:53:24;;;;;;;22.52;17.02;;;;;;;;;;5013563;28;20056;-76
2022/12/08 08:55:52;;;;;;;21.45;16.33;;;;;;;;;;4985708;28;20033;-76
2022/12/08 08:58:21;;;;;;;23.73;15.82;;;;;;;;;;4976663;28;20488;-76
2022/12/08 09:00:46;;;;;;;23.00;19.67;;;;;;;;;;4993858;28;20036;-76
2022/12/08 09:03:12;;;;;;;23.17;17.60;;;;;;;;;;5009279;28;20033;-76
2022/12/08 09:05:40;;;;;;;26.30;16.50;;;;;;;;;;5014088;28;20038;-76
2022/12/08 09:08:09;;;;;;;27.75;21.25;;;;;;;;;;4995390;28;20041;-76
2022/12/08 09:10:37;;;;;;;25.90;16.17;;;;;;;;;;5013836;28;20021;-76
2022/12/08 09:13:05;;;;;;;23.58;16.45;;;;;;;;;;4996701;28;20084;-76
2022/12/08 09:15:36;;;;;;;24.02;19.02;;;;;;;;;;5016521;28;20029;-76
2022/12/08 09:18:02;;;;;;;25.73;20.25;;;;;;;;;;5009968;28;20063;-76
2022/12/08 09:20:30;;;;;;;17.75;14.68;;;;;;;;;;5009116;28;20232;-76
2022/12/08 09:22:55;;;;;;;23.95;16.20;;;;;;;;;;5020567;28;20033;-76
2022/12/08 09:25:24;;;;;;;22.05;16.23;;;;;;;;;;5009393;28;20422;-76
2022/12/08 09:27:52;;;;;;;25.27;16.85;;;;;;;;;;5013168;28;20034;-76
2022/12/08 09:30:17;;;;;;;24.13;16.17;;;;;;;;;;5010455;28;20080;-76
2022/12/08 09:32:48;;;;;;;20.88;17.20;;;;;;;;;;5013091;28;20037;-76
2022/12/08 09:35:16;;;;;;;25.45;20.02;;;;;;;;;;5010293;28;20025;-76
2022/12/08 09:37:47;;;;;;;19.27;15.60;;;;;;;;;;4992593;28;20034;-76
2022/12/08 09:40:17;;;;;;;21.73;14.80;;;;;;;;;;5009997;28;20026;-76
2022/12/08 09:43:06;;;;;;;20.42;16.95;;;;;;;;;;5009379;28;20033;-76
2022/12/08 09:45:35;;;;;;;22.80;16.13;;;;;;;;;;4996649;28;20041;-76
2022/12/08 09:48:05;;;;;;;17.88;14.90;;;;;;;;;;5007986;28;20030;-76
2022/12/08 09:50:38;;;;;;;27.60;16.30;;;;;;;;;;4991889;28;20038;-76
2022/12/08 09:53:18;;;;;;;21.48;15.30;;;;;;;;;;4994100;28;20037;-76
2022/12/08 09:55:50;;;;;;;21.08;16.52;;;;;;;;;;5012735;28;20034;-76
2022/12/08 09:58:39;;;;;;;22.15;18.52;;;;;;;;;;5005797;28;20030;-76
2022/12/08 10:01:08;;;;;;;22.48;15.73;;;;;;;;;;5002488;28;20034;-76
2022/12/08 10:03:36;;;;;;;17.60;15.45;;;;;;;;;;4991729;28;20322;-76
2022/12/08 10:06:08;;;;;;;19.60;13.55;;;;;;;;;;5005931;28;20038;-76
2022/12/08 10:08:46;;;;;;;20.30;15.25;;;;;;;;;;5009664;28;20400;-76
2022/12/08 10:11:18;;;;;;;17.90;13.60;;;;;;;;;;5005293;28;20407;-75
2022/12/08 10:13:50;;;;;;;20.48;14.23;;;;;;;;;;4992795;28;20029;-76
2022/12/08 10:16:23;;;;;;;31.00;16.93;;;;;;;;;;5010122;28;20026;-76
2022/12/08 10:18:56;;;;;;;18.73;16.15;;;;;;;;;;5011187;28;20034;-76
2022/12/08 10:21:25;;;;;;;26.60;18.40;;;;;;;;;;4990822;28;20621;-76
2022/12/08 10:23:54;;;;;;;21.92;14.75;;;;;;;;;;5009559;28;20022;-76
2022/12/08 10:26:25;;;;;;;24.60;17.48;;;;;;;;;;5009313;28;20030;-76
2022/12/08 10:28:51;;;;;;;23.17;17.27;;;;;;;;;;5009432;28;20033;-76
2022/12/08 10:31:20;;;;;;;22.42;16.25;;;;;;;;;;5005527;28;20033;-76
2022/12/08 10:33:53;;;;;;;21.15;17.15;;;;;;;;;;4991881;28;20033;-76
2022/12/08 10:36:21;;;;;;;23.52;15.05;;;;;;;;;;5010238;28;20041;-76
2022/12/08 10:38:47;;;;;;;22.17;16.35;;;;;;;;;;4990076;28;20126;-76
2022/12/08 10:41:16;;;;;;;19.15;15.32;;;;;;;;;;4977049;28;20098;-76
2022/12/08 10:43:45;;;;;;;22.58;16.85;;;;;;;;;;4970961;28;20035;-76
2022/12/08 10:46:21;;;;;;;19.50;14.25;;;;;;;;;;4957511;28;20039;-76
2022/12/08 10:48:47;;;;;;;21.20;15.05;;;;;;;;;;4971179;28;20023;-76
2022/12/08 10:51:21;;;;;;;16.98;14.50;;;;;;;;;;4954887;28;20573;-76
2022/12/08 10:53:47;;;;;;;20.02;15.88;;;;;;;;;;4953837;28;20046;-76
2022/12/08 10:56:16;;;;;;;22.92;14.75;;;;;;;;;;4969905;28;20031;-76
2022/12/08 10:58:45;;;;;;;22.55;16.48;;;;;;;;;;4968163;28;20066;-76
2022/12/08 11:01:16;;;;;;;24.85;16.98;;;;;;;;;;4933648;28;20038;-76
2022/12/08 11:03:55;;;;;;;24.55;15.32;;;;;;;;;;4966870;28;20026;-76
2022/12/08 11:06:33;;;;;;;21.58;14.65;;;;;;;;;;4955502;28;20031;-76
2022/12/08 11:09:00;;;;;;;20.77;15.85;;;;;;;;;;4984516;28;20035;-76
2022/12/08 11:11:49;;;;;;;19.58;14.20;;;;;;;;;;4972608;28;20042;-74
2022/12/08 11:14:20;;;;;;;17.98;13.93;;;;;;;;;;4958927;28;20044;-75
2022/12/08 11:16:53;;;;;;;22.63;15.65;;;;;;;;;;4989547;28;20031;-76
2022/12/08 11:19:25;;;;;;;22.00;15.50;;;;;;;;;;4956379;28;20038;-75
2022/12/08 11:21:53;;;;;;;21.45;14.15;;;;;;;;;;4969669;28;20027;-77
2022/12/08 11:24:28;;;;;;;22.27;14.60;;;;;;;;;;4969757;28;20022;-73
2022/12/08 11:27:01;;;;;;;20.90;16.67;;;;;;;;;;4974515;28;20585;-74
2022/12/08 11:29:27;;;;;;;22.17;15.05;;;;;;;;;;4971556;28;20035;-74
2022/12/08 11:31:58;;;;;;;21.02;13.00;;;;;;;;;;4973149;28;20042;-74
2022/12/08 11:34:36;;;;;;;22.92;15.27;;;;;;;;;;4976093;28;20049;-74
2022/12/08 11:37:07;;;;;;;17.52;14.38;;;;;;;;;;4974092;28;20035;-75
2022/12/08 11:39:34;;;;;;;23.63;14.65;;;;;;;;;;4978269;28;20034;-74
2022/12/08 11:42:06;;;;;;;19.95;15.38;;;;;;;;;;4987563;28;20039;-74
2022/12/08 11:44:34;;;;;;;20.58;14.23;;;;;;;;;;4975583;28;20038;-74
2022/12/08 11:47:10;;;;;;;17.75;12.75;;;;;;;;;;4978831;28;20030;-74
2022/12/08 11:49:38;;;;;;;20.58;14.77;;;;;;;;;;4977776;28;20050;-74
2022/12/08 11:52:10;;;;;;;21.17;13.07;;;;;;;;;;4959614;28;20480;-74
2022/12/08 11:54:43;;;;;;;15.85;12.90;;;;;;;;;;4952840;28;20034;-74
2022/12/08 11:57:19;;;;;;;16.70;13.50;;;;;;;;;;4940367;28;20039;-74
2022/12/08 11:59:50;;;;;;;20.52;13.77;;;;;;;;;;4977664;28;20045;-74
2022/12/08 12:02:29;;;;;;;19.88;14.02;;;;;;;;;;4958653;28;20039;-74
2022/12/08 12:04:57;;;;;;;17.75;13.88;;;;;;;;;;4966918;28;20049;-75
2022/12/08 12:07:34;;;;;;;17.30;12.52;;;;;;;;;;4960759;28;20489;-75
2022/12/08 12:10:03;;;;;;;17.27;14.02;;;;;;;;;;4967714;28;20026;-75
2022/12/08 12:12:50;;;;;;;20.17;11.05;;;;;;;;;;4950232;28;20034;-75
2022/12/08 12:15:24;;;;;;;16.42;13.07;;;;;;;;;;4980767;28;20054;-74
2022/12/08 12:17:50;;;;;;;12.85;10.80;;;;;;;;;;4958514;28;20039;-75
2022/12/08 12:20:18;;;;;;;20.17;14.07;;;;;;;;;;4971678;28;20037;-75
2022/12/08 12:22:47;;;;;;;19.13;11.18;;;;;;;;;;4940687;28;20489;-75
2022/12/08 12:25:22;;;;;;;15.70;11.52;;;;;;;;;;4973455;28;20038;-75
2022/12/08 12:27:51;;;;;;;15.17;11.93;;;;;;;;;;4959237;28;20397;-75
2022/12/08 12:30:25;;;;;;;12.23;9.68;;;;;;;;;;4974224;28;20289;-74
2022/12/08 12:32:56;;;;;;;22.48;13.63;;;;;;;;;;4942882;28;20042;-75
2022/12/08 12:35:42;;;;;;;16.67;11.82;;;;;;;;;;4956250;28;20516;-75
2022/12/08 12:41:09;;;;;;;16.38;11.43;;;;;;;;;;4941013;28;20040;-72
2022/12/08 12:43:37;;;;;;;22.33;13.60;;;;;;;;;;4984323;28;20037;-75
2022/12/08 12:46:23;;;;;;;16.73;11.55;;;;;;;;;;4977918;28;20047;-74
2022/12/08 12:48:49;;;;;;;;;;;;;;;;;;4979167;28;20046;-75
2022/12/08 12:51:36;;;;;;;13.50;10.23;;;;;;;;;;4973606;28;20376;-75
2022/12/08 12:54:31;;;;;;;18.00;12.52;;;;;;;;;;4985118;28;20396;-75
2022/12/08 12:57:08;;;;;;;14.43;11.40;;;;;;;;;;4955268;28;20433;-75
2022/12/08 12:59:34;;;;;;;13.85;9.98;;;;;;;;;;4970903;28;20477;-74
2022/12/08 13:02:02;;;;;;;15.07;9.40;;;;;;;;;;4973708;28;20039;-75
2022/12/08 13:04:38;;;;;;;11.13;9.35;;;;;;;;;;4968363;28;20405;-75
2022/12/08 13:07:04;;;;;;;15.38;12.00;;;;;;;;;;4984483;28;20048;-72
2022/12/08 13:09:40;;;;;;;12.32;7.85;;;;;;;;;;4975318;28;20031;-72
2022/12/08 13:12:18;;;;;;;10.05;8.32;;;;;;;;;;5006883;28;20061;-72
2022/12/08 13:14:48;;;;;;;12.82;9.50;;;;;;;;;;5016772;28;20026;-73
2022/12/08 13:17:26;;;;;;;12.90;9.48;;;;;;;;;;4992487;28;20034;-73
2022/12/08 13:19:55;;;;;;;13.48;9.88;;;;;;;;;;4973463;28;20031;-72
2022/12/08 13:22:42;;;;;;;12.40;8.55;;;;;;;;;;4987166;28;20038;-73
2022/12/08 13:25:27;;;;;;;13.15;9.90;;;;;;;;;;4954354;28;20038;-73
2022/12/08 13:27:55;;;;;;;12.85;9.80;;;;;;;;;;4968804;28;20039;-73
2022/12/08 13:30:40;;;;;;;15.60;9.82;;;;;;;;;;4982047;28;20396;-73
2022/12/08 13:33:09;;;;;;;15.60;9.25;;;;;;;;;;4970607;28;20026;-73
2022/12/08 13:35:39;;;;;;;10.52;7.75;;;;;;;;;;4990518;28;20034;-73
2022/12/08 13:38:07;;;;;;;11.63;8.55;;;;;;;;;;4989234;28;20038;-73
2022/12/08 13:40:35;;;;;;;14.52;9.60;;;;;;;;;;4968262;28;20042;-73
2022/12/08 13:43:04;;;;;;;12.25;8.38;;;;;;;;;;4992564;28;20057;-73
2022/12/08 13:45:33;;;;;;;13.68;9.65;;;;;;;;;;4987472;28;20034;-72
2022/12/08 13:48:04;;;;;;;14.38;10.45;;;;;;;;;;4973484;28;20030;-73
2022/12/08 13:50:34;;;;;;;11.48;9.35;;;;;;;;;;4999724;28;20026;-73
2022/12/08 13:53:02;;;;;;;12.13;10.85;;;;;;;;;;4984628;28;20027;-72
2022/12/08 13:55:51;;;;;;;12.65;8.82;;;;;;;;;;4972263;28;21208;-73
2022/12/08 13:58:33;;;;;;;14.73;10.20;;;;;;;;;;4977818;28;20035;-72
2022/12/08 14:01:16;;;;;;;15.00;9.90;;;;;;;;;;4982078;28;20034;-73
2022/12/08 14:03:45;;;;;;;16.85;11.35;;;;;;;;;;4989335;28;20026;-72
2022/12/08 14:06:18;;;;;;;12.75;9.98;;;;;;;;;;4984520;28;20038;-72
2022/12/08 14:08:50;;;;;;;15.88;10.43;;;;;;;;;;4978727;28;20035;-72
2022/12/08 14:11:32;;;;;;;16.58;11.38;;;;;;;;;;4976718;28;20253;-73
2022/12/08 14:13:59;;;;;;;13.75;10.13;;;;;;;;;;4990941;28;20034;-73
2022/12/08 14:16:29;;;;;;;15.25;11.55;;;;;;;;;;4990318;28;20034;-73
2022/12/08 14:19:04;;;;;;;12.32;9.32;;;;;;;;;;4979730;28;20031;-73
2022/12/08 14:21:35;;;;;;;10.40;8.82;;;;;;;;;;4978020;28;20037;-73
2022/12/08 14:24:02;;;;;;;13.88;10.00;;;;;;;;;;4985869;28;20448;-73
2022/12/08 14:26:32;;;;;;;12.02;7.78;;;;;;;;;;4988986;28;20034;-73
2022/12/08 14:28:58;;;;;;;12.95;9.88;;;;;;;;;;4963797;28;20043;-73
2022/12/08 14:31:26;;;;;;;13.60;11.30;;;;;;;;;;4976890;28;20030;-73
2022/12/08 14:33:54;;;;;;;12.45;9.77;;;;;;;;;;4985094;28;20481;-73
2022/12/08 14:36:27;;;;;;;10.95;7.63;;;;;;;;;;4990809;28;20038;-73
2022/12/08 14:38:55;;;;;;;14.13;8.18;;;;;;;;;;4990738;28;20038;-73
2022/12/08 14:41:30;;;;;;;13.05;9.75;;;;;;;;;;4977562;28;20033;-73
2022/12/08 14:43:59;;;;;;;16.58;8.98;;;;;;;;;;4980200;28;20507;-73
2022/12/08 14:46:25;;;;;;;12.32;10.60;;;;;;;;;;4996917;28;20389;-73